createdAt,value
2019-01-09T00:00:05.648Z,2.50
2019-01-09T00:01:05.692Z,2.50
2019-01-09T00:02:05.452Z,2.50
2019-01-09T00:03:05.623Z,2.50
2019-01-09T00:04:06.051Z,2.50
2019-01-09T00:05:05.945Z,2.50
2019-01-09T00:06:05.652Z,2.50
2019-01-09T00:07:05.066Z,2.44
2019-01-09T00:08:05.229Z,2.44
2019-01-09T00:09:05.845Z,2.44
2019-01-09T00:10:05.865Z,2.44
2019-01-09T00:11:05.301Z,2.44
2019-01-09T00:12:05.715Z,2.44
2019-01-09T00:13:05.449Z,2.44
2019-01-09T00:14:05.635Z,2.44
2019-01-09T00:15:06.002Z,2.44
2019-01-09T00:16:05.459Z,2.44
2019-01-09T00:17:06.027Z,2.44
2019-01-09T00:18:05.389Z,2.44
2019-01-09T00:19:05.879Z,2.44
2019-01-09T00:20:05.172Z,2.44
2019-01-09T00:21:05.141Z,2.44
2019-01-09T00:22:05.549Z,2.38
2019-01-09T00:23:05.614Z,2.38
2019-01-09T00:24:05.715Z,2.38
2019-01-09T00:25:05.744Z,2.38
2019-01-09T00:26:06.769Z,2.38
2019-01-09T00:27:05.141Z,2.31
2019-01-09T00:28:05.074Z,2.38
2019-01-09T00:29:05.766Z,2.38
2019-01-09T00:30:05.382Z,2.31
2019-01-09T00:31:06.010Z,2.38
2019-01-09T00:32:05.154Z,2.31
2019-01-09T00:33:05.112Z,2.31
2019-01-09T00:34:05.777Z,2.31
2019-01-09T00:35:05.063Z,2.31
2019-01-09T00:36:05.626Z,2.31
2019-01-09T00:37:06.111Z,2.31
2019-01-09T00:38:05.402Z,2.31
2019-01-09T00:39:05.537Z,2.25
2019-01-09T00:40:05.975Z,2.25
2019-01-09T00:41:06.028Z,2.25
2019-01-09T00:42:05.932Z,2.25
2019-01-09T00:43:05.284Z,2.25
2019-01-09T00:44:05.801Z,2.25
2019-01-09T00:45:05.900Z,2.25
2019-01-09T00:46:05.400Z,2.19
2019-01-09T00:47:05.772Z,2.25
2019-01-09T00:48:05.288Z,2.19
2019-01-09T00:49:05.441Z,2.19
2019-01-09T00:50:05.539Z,2.19
2019-01-09T00:51:05.710Z,2.19
2019-01-09T00:52:05.883Z,2.19
2019-01-09T00:53:06.036Z,2.19
2019-01-09T00:54:05.556Z,2.19
2019-01-09T00:55:06.094Z,2.12
2019-01-09T00:56:05.243Z,2.12
2019-01-09T00:57:05.718Z,2.12
2019-01-09T00:58:05.646Z,2.12
2019-01-09T00:59:05.874Z,2.06
2019-01-09T01:00:05.910Z,2.06
2019-01-09T01:01:05.162Z,2.12
2019-01-09T01:02:05.243Z,2.12
2019-01-09T01:03:05.657Z,2.06
2019-01-09T01:04:05.788Z,2.06
2019-01-09T01:05:05.867Z,2.06
2019-01-09T01:06:05.565Z,2.12
2019-01-09T01:07:05.732Z,2.06
2019-01-09T01:08:05.808Z,2.12
2019-01-09T01:09:05.492Z,2.06
2019-01-09T01:10:05.547Z,2.06
2019-01-09T01:11:06.105Z,2.06
2019-01-09T01:12:05.553Z,2.06
2019-01-09T01:13:05.623Z,2.06
2019-01-09T01:14:05.784Z,2.06
2019-01-09T01:15:05.313Z,2.06
2019-01-09T01:16:05.850Z,2.06
2019-01-09T01:17:05.311Z,2.06
2019-01-09T01:18:06.039Z,2.06
2019-01-09T01:19:05.066Z,2.06
2019-01-09T01:20:05.806Z,2.06
2019-01-09T01:21:05.801Z,2.06
2019-01-09T01:22:05.404Z,2.00
2019-01-09T01:23:05.865Z,2.06
2019-01-09T01:24:06.030Z,2.06
2019-01-09T01:25:05.242Z,2.00
2019-01-09T01:26:05.270Z,2.00
2019-01-09T01:27:05.392Z,2.00
2019-01-09T01:28:05.720Z,2.00
2019-01-09T01:29:05.715Z,2.00
2019-01-09T01:30:05.504Z,2.00
2019-01-09T01:31:05.631Z,2.00
2019-01-09T01:32:05.891Z,2.00
2019-01-09T01:33:05.396Z,2.00
2019-01-09T01:34:05.158Z,1.94
2019-01-09T01:35:05.163Z,1.94
2019-01-09T01:36:05.787Z,1.94
2019-01-09T01:37:05.645Z,1.94
2019-01-09T01:38:05.629Z,1.94
2019-01-09T01:39:05.248Z,1.94
2019-01-09T01:40:05.166Z,1.94
2019-01-09T01:41:05.330Z,1.94
2019-01-09T01:42:05.392Z,1.88
2019-01-09T01:43:05.723Z,1.88
2019-01-09T01:44:05.802Z,1.88
2019-01-09T01:45:05.881Z,1.88
2019-01-09T01:46:05.187Z,1.88
2019-01-09T01:47:05.319Z,1.88
2019-01-09T01:48:05.405Z,1.88
2019-01-09T01:49:05.868Z,1.88
2019-01-09T01:50:05.152Z,1.88
2019-01-09T01:51:05.311Z,1.88
2019-01-09T01:52:05.313Z,1.88
2019-01-09T01:53:05.580Z,1.88
2019-01-09T01:54:05.728Z,1.88
2019-01-09T01:55:05.804Z,1.88
2019-01-09T01:56:06.035Z,1.88
2019-01-09T01:57:05.242Z,1.81
2019-01-09T01:58:05.387Z,1.81
2019-01-09T01:59:05.395Z,1.88
2019-01-09T02:00:05.565Z,1.88
2019-01-09T02:01:05.627Z,1.81
2019-01-09T02:02:05.064Z,1.81
2019-01-09T02:03:05.142Z,1.81
2019-01-09T02:04:05.311Z,1.81
2019-01-09T02:05:05.499Z,1.81
2019-01-09T02:06:05.634Z,1.81
2019-01-09T02:07:05.869Z,1.81
2019-01-09T02:08:05.246Z,1.81
2019-01-09T02:09:05.235Z,1.81
2019-01-09T02:10:05.242Z,1.81
2019-01-09T02:11:05.876Z,1.81
2019-01-09T02:12:05.390Z,1.81
2019-01-09T02:13:05.970Z,1.81
2019-01-09T02:14:05.150Z,1.81
2019-01-09T02:15:05.281Z,1.75
2019-01-09T02:16:05.967Z,1.81
2019-01-09T02:17:05.947Z,1.81
2019-01-09T02:18:05.464Z,1.75
2019-01-09T02:19:05.075Z,1.75
2019-01-09T02:20:05.953Z,1.75
2019-01-09T02:21:05.479Z,1.75
2019-01-09T02:22:05.476Z,1.75
2019-01-09T02:23:05.915Z,1.75
2019-01-09T02:24:05.886Z,1.75
2019-01-09T02:25:05.238Z,1.75
2019-01-09T02:26:05.411Z,1.75
2019-01-09T02:27:05.629Z,1.75
2019-01-09T02:28:05.826Z,1.75
2019-01-09T02:29:05.954Z,1.75
2019-01-09T02:30:05.258Z,1.75
2019-01-09T02:31:05.490Z,1.75
2019-01-09T02:32:05.802Z,1.75
2019-01-09T02:33:05.797Z,1.75
2019-01-09T02:34:05.324Z,1.75
2019-01-09T02:35:05.564Z,1.75
2019-01-09T02:36:13.217Z,1.75
2019-01-09T02:37:05.247Z,1.75
2019-01-09T02:38:05.420Z,1.75
2019-01-09T02:39:05.475Z,1.75
2019-01-09T02:40:06.136Z,1.81
2019-01-09T02:41:05.633Z,1.75
2019-01-09T02:42:05.882Z,1.75
2019-01-09T02:43:05.073Z,1.75
2019-01-09T02:44:05.173Z,1.75
2019-01-09T02:45:05.794Z,1.69
2019-01-09T02:46:05.440Z,1.75
2019-01-09T02:47:05.638Z,1.75
2019-01-09T02:48:06.114Z,1.69
2019-01-09T02:49:05.574Z,1.69
2019-01-09T02:50:05.737Z,1.69
2019-01-09T02:51:05.802Z,1.69
2019-01-09T02:52:05.494Z,1.69
2019-01-09T02:53:05.571Z,1.69
2019-01-09T02:54:05.640Z,1.69
2019-01-09T02:55:05.228Z,1.69
2019-01-09T02:56:05.418Z,1.69
2019-01-09T02:57:05.961Z,1.69
2019-01-09T02:58:05.737Z,1.69
2019-01-09T02:59:05.806Z,1.69
2019-01-09T03:00:05.969Z,1.69
2019-01-09T03:01:06.042Z,1.69
2019-01-09T03:02:05.149Z,1.69
2019-01-09T03:03:05.637Z,1.69
2019-01-09T03:04:05.160Z,1.69
2019-01-09T03:05:05.639Z,1.69
2019-01-09T03:06:05.815Z,1.69
2019-01-09T03:07:05.799Z,1.62
2019-01-09T03:08:05.325Z,1.62
2019-01-09T03:09:05.314Z,1.62
2019-01-09T03:10:05.494Z,1.62
2019-01-09T03:11:05.476Z,1.62
2019-01-09T03:12:05.074Z,1.62
2019-01-09T03:13:05.092Z,1.69
2019-01-09T03:14:05.652Z,1.62
2019-01-09T03:15:05.868Z,1.62
2019-01-09T03:16:05.423Z,1.62
2019-01-09T03:17:05.886Z,1.62
2019-01-09T03:18:05.070Z,1.62
2019-01-09T03:19:05.641Z,1.62
2019-01-09T03:20:05.820Z,1.62
2019-01-09T03:21:05.802Z,1.62
2019-01-09T03:22:05.986Z,1.62
2019-01-09T03:23:05.394Z,1.62
2019-01-09T03:24:05.783Z,1.62
2019-01-09T03:25:05.395Z,1.62
2019-01-09T03:26:05.491Z,1.62
2019-01-09T03:27:05.796Z,1.62
2019-01-09T03:28:05.797Z,1.62
2019-01-09T03:29:10.235Z,1.62
2019-01-09T03:30:05.713Z,1.62
2019-01-09T03:31:05.881Z,1.69
2019-01-09T03:32:05.961Z,1.69
2019-01-09T03:33:05.721Z,1.69
2019-01-09T03:34:05.880Z,1.69
2019-01-09T03:35:05.795Z,1.69
2019-01-09T03:36:05.393Z,1.62
2019-01-09T03:37:05.483Z,1.62
2019-01-09T03:38:05.706Z,1.62
2019-01-09T03:39:05.705Z,1.62
2019-01-09T03:40:05.701Z,1.62
2019-01-09T03:41:05.880Z,1.62
2019-01-09T03:42:05.869Z,1.62
2019-01-09T03:43:05.159Z,1.62
2019-01-09T03:44:05.480Z,1.62
2019-01-09T03:45:05.884Z,1.62
2019-01-09T03:46:05.062Z,1.62
2019-01-09T03:47:05.242Z,1.62
2019-01-09T03:48:05.482Z,1.62
2019-01-09T03:49:05.385Z,1.56
2019-01-09T03:50:05.951Z,1.56
2019-01-09T03:51:06.035Z,1.56
2019-01-09T03:52:05.297Z,1.56
2019-01-09T03:53:05.951Z,1.56
2019-01-09T03:54:05.389Z,1.56
2019-01-09T03:55:05.884Z,1.56
2019-01-09T03:56:05.876Z,1.56
2019-01-09T03:57:05.873Z,1.56
2019-01-09T03:58:05.306Z,1.56
2019-01-09T03:59:05.557Z,1.50
2019-01-09T04:00:05.802Z,1.50
2019-01-09T04:01:05.647Z,1.50
2019-01-09T04:02:05.653Z,1.56
2019-01-09T04:03:05.147Z,1.56
2019-01-09T04:04:05.633Z,1.56
2019-01-09T04:05:06.115Z,1.56
2019-01-09T04:06:05.384Z,1.56
2019-01-09T04:07:05.951Z,1.56
2019-01-09T04:08:06.138Z,1.56
2019-01-09T04:09:05.160Z,1.50
2019-01-09T04:10:05.401Z,1.50
2019-01-09T04:11:05.462Z,1.50
2019-01-09T04:12:05.638Z,1.50
2019-01-09T04:13:05.068Z,1.56
2019-01-09T04:14:05.550Z,1.56
2019-01-09T04:15:05.638Z,1.56
2019-01-09T04:16:05.873Z,1.56
2019-01-09T04:17:05.953Z,1.56
2019-01-09T04:18:06.031Z,1.50
2019-01-09T04:19:06.118Z,1.50
2019-01-09T04:20:05.247Z,1.50
2019-01-09T04:21:05.243Z,1.50
2019-01-09T04:22:05.243Z,1.50
2019-01-09T04:23:05.388Z,1.50
2019-01-09T04:24:06.021Z,1.50
2019-01-09T04:25:05.621Z,1.50
2019-01-09T04:26:05.069Z,1.50
2019-01-09T04:27:05.500Z,1.50
2019-01-09T04:28:05.727Z,1.50
2019-01-09T04:29:05.942Z,1.50
2019-01-09T04:30:05.467Z,1.50
2019-01-09T04:31:05.406Z,1.50
2019-01-09T04:32:05.897Z,1.50
2019-01-09T04:33:05.798Z,1.50
2019-01-09T04:34:05.787Z,1.50
2019-01-09T04:35:05.491Z,1.50
2019-01-09T04:36:05.566Z,1.50
2019-01-09T04:37:05.318Z,1.50
2019-01-09T04:38:05.910Z,1.50
2019-01-09T04:39:06.042Z,1.50
2019-01-09T04:40:05.396Z,1.50
2019-01-09T04:41:05.638Z,1.50
2019-01-09T04:42:05.231Z,1.50
2019-01-09T04:43:05.250Z,1.50
2019-01-09T04:44:05.722Z,1.56
2019-01-09T04:45:05.249Z,1.56
2019-01-09T04:46:05.333Z,1.50
2019-01-09T04:47:05.385Z,1.50
2019-01-09T04:48:05.629Z,1.50
2019-01-09T04:49:06.037Z,1.50
2019-01-09T04:50:05.569Z,1.50
2019-01-09T04:51:05.656Z,1.50
2019-01-09T04:52:05.721Z,1.50
2019-01-09T04:53:05.782Z,1.50
2019-01-09T04:54:05.965Z,1.50
2019-01-09T04:55:05.939Z,1.50
2019-01-09T04:56:06.040Z,1.50
2019-01-09T04:57:05.221Z,1.50
2019-01-09T04:58:05.306Z,1.50
2019-01-09T04:59:05.483Z,1.50
2019-01-09T05:00:05.548Z,1.50
2019-01-09T05:01:05.247Z,1.50
2019-01-09T05:02:05.326Z,1.50
2019-01-09T05:03:05.425Z,1.50
2019-01-09T05:04:05.321Z,1.50
2019-01-09T05:05:05.484Z,1.50
2019-01-09T05:06:05.563Z,1.50
2019-01-09T05:07:05.545Z,1.50
2019-01-09T05:08:05.655Z,1.50
2019-01-09T05:09:05.071Z,1.50
2019-01-09T05:10:05.072Z,1.50
2019-01-09T05:11:05.317Z,1.50
2019-01-09T05:12:05.482Z,1.44
2019-01-09T05:13:05.549Z,1.44
2019-01-09T05:14:05.645Z,1.44
2019-01-09T05:15:05.318Z,1.50
2019-01-09T05:16:05.714Z,1.44
2019-01-09T05:17:05.794Z,1.50
2019-01-09T05:18:05.865Z,1.50
2019-01-09T05:19:05.947Z,1.50
2019-01-09T05:20:05.326Z,1.44
2019-01-09T05:21:05.329Z,1.44
2019-01-09T05:22:05.722Z,1.38
2019-01-09T05:23:05.957Z,1.44
2019-01-09T05:24:05.949Z,1.44
2019-01-09T05:25:05.718Z,1.44
2019-01-09T05:26:05.481Z,1.44
2019-01-09T05:27:05.550Z,1.44
2019-01-09T05:28:05.483Z,1.38
2019-01-09T05:29:05.626Z,1.44
2019-01-09T05:30:05.068Z,1.44
2019-01-09T05:31:07.550Z,1.44
2019-01-09T05:32:05.402Z,1.44
2019-01-09T05:33:05.147Z,1.44
2019-01-09T05:34:05.795Z,1.44
2019-01-09T05:35:05.867Z,1.44
2019-01-09T05:36:05.555Z,1.44
2019-01-09T05:37:09.559Z,1.44
2019-01-09T05:38:05.483Z,1.44
2019-01-09T05:39:05.792Z,1.44
2019-01-09T05:40:05.149Z,1.44
2019-01-09T05:41:05.237Z,1.44
2019-01-09T05:42:05.481Z,1.44
2019-01-09T05:43:06.119Z,1.44
2019-01-09T05:44:05.104Z,1.38
2019-01-09T05:45:05.424Z,1.38
2019-01-09T05:46:05.465Z,1.44
2019-01-09T05:47:05.175Z,1.38
2019-01-09T05:48:05.229Z,1.38
2019-01-09T05:49:05.158Z,1.38
2019-01-09T05:50:05.221Z,1.38
2019-01-09T05:51:05.704Z,1.38
2019-01-09T05:52:05.150Z,1.38
2019-01-09T05:53:05.231Z,1.38
2019-01-09T05:54:05.227Z,1.38
2019-01-09T05:55:05.378Z,1.38
2019-01-09T05:56:05.953Z,1.38
2019-01-09T05:57:05.953Z,1.31
2019-01-09T05:58:05.555Z,1.38
2019-01-09T05:59:05.398Z,1.38
2019-01-09T06:00:05.339Z,1.38
2019-01-09T06:01:05.628Z,1.38
2019-01-09T06:02:05.467Z,1.38
2019-01-09T06:03:05.793Z,1.38
2019-01-09T06:04:05.882Z,1.38
2019-01-09T06:05:05.309Z,1.38
2019-01-09T06:06:05.409Z,1.38
2019-01-09T06:07:05.485Z,1.38
2019-01-09T06:08:05.404Z,1.38
2019-01-09T06:09:05.949Z,1.38
2019-01-09T06:10:05.221Z,1.38
2019-01-09T06:11:05.798Z,1.38
2019-01-09T06:12:05.881Z,1.38
2019-01-09T06:13:05.860Z,1.31
2019-01-09T06:14:05.383Z,1.31
2019-01-09T06:15:05.466Z,1.31
2019-01-09T06:16:05.792Z,1.31
2019-01-09T06:17:06.031Z,1.31
2019-01-09T06:18:06.130Z,1.31
2019-01-09T06:19:05.086Z,1.31
2019-01-09T06:20:05.307Z,1.31
2019-01-09T06:21:05.711Z,1.31
2019-01-09T06:22:05.242Z,1.31
2019-01-09T06:23:05.628Z,1.31
2019-01-09T06:24:05.239Z,1.31
2019-01-09T06:25:05.147Z,1.31
2019-01-09T06:26:05.152Z,1.31
2019-01-09T06:27:05.381Z,1.31
2019-01-09T06:28:05.461Z,1.31
2019-01-09T06:29:05.884Z,1.25
2019-01-09T06:30:05.399Z,1.31
2019-01-09T06:31:06.022Z,1.25
2019-01-09T06:32:06.025Z,1.31
2019-01-09T06:33:05.624Z,1.31
2019-01-09T06:34:05.791Z,1.25
2019-01-09T06:35:06.034Z,1.31
2019-01-09T06:36:05.241Z,1.31
2019-01-09T06:37:05.550Z,1.31
2019-01-09T06:38:06.022Z,1.25
2019-01-09T06:39:05.949Z,1.25
2019-01-09T06:40:06.035Z,1.25
2019-01-09T06:41:05.073Z,1.25
2019-01-09T06:42:05.536Z,1.25
2019-01-09T06:43:05.617Z,1.25
2019-01-09T06:44:05.703Z,1.25
2019-01-09T06:45:05.383Z,1.25
2019-01-09T06:46:05.391Z,1.25
2019-01-09T06:47:05.785Z,1.25
2019-01-09T06:48:05.778Z,1.25
2019-01-09T06:49:05.865Z,1.25
2019-01-09T06:50:05.231Z,1.25
2019-01-09T06:51:05.801Z,1.25
2019-01-09T06:52:05.723Z,1.25
2019-01-09T06:53:05.810Z,1.25
2019-01-09T06:54:05.975Z,1.25
2019-01-09T06:55:06.065Z,1.25
2019-01-09T06:56:05.477Z,1.25
2019-01-09T06:57:05.546Z,1.25
2019-01-09T06:58:05.699Z,1.25
2019-01-09T06:59:05.789Z,1.19
2019-01-09T07:00:05.868Z,1.25
2019-01-09T07:01:05.071Z,1.25
2019-01-09T07:02:05.411Z,1.19
2019-01-09T07:03:05.398Z,1.19
2019-01-09T07:04:05.469Z,1.19
2019-01-09T07:05:05.463Z,1.25
2019-01-09T07:06:05.797Z,1.25
2019-01-09T07:07:05.789Z,1.25
2019-01-09T07:08:07.015Z,1.25
2019-01-09T07:09:05.231Z,1.25
2019-01-09T07:10:06.196Z,1.25
2019-01-09T07:11:05.383Z,1.19
2019-01-09T07:12:05.068Z,1.19
2019-01-09T07:13:05.473Z,1.19
2019-01-09T07:14:05.156Z,1.19
2019-01-09T07:15:11.236Z,1.19
2019-01-09T07:16:05.874Z,1.19
2019-01-09T07:17:05.946Z,1.19
2019-01-09T07:18:05.462Z,1.19
2019-01-09T07:19:05.959Z,1.19
2019-01-09T07:20:05.069Z,1.19
2019-01-09T07:21:05.168Z,1.12
2019-01-09T07:22:05.230Z,1.12
2019-01-09T07:23:05.389Z,1.12
2019-01-09T07:24:05.470Z,1.12
2019-01-09T07:25:06.079Z,1.12
2019-01-09T07:26:05.157Z,1.12
2019-01-09T07:27:05.319Z,1.12
2019-01-09T07:28:05.171Z,1.12
2019-01-09T07:29:05.319Z,1.19
2019-01-09T07:30:05.159Z,1.12
2019-01-09T07:31:05.230Z,1.12
2019-01-09T07:32:05.467Z,1.12
2019-01-09T07:33:05.543Z,1.12
2019-01-09T07:34:05.633Z,1.19
2019-01-09T07:35:05.150Z,1.12
2019-01-09T07:36:05.472Z,1.12
2019-01-09T07:37:05.799Z,1.12
2019-01-09T07:38:05.796Z,1.12
2019-01-09T07:39:05.866Z,1.19
2019-01-09T07:40:05.944Z,1.12
2019-01-09T07:41:05.633Z,1.19
2019-01-09T07:42:05.807Z,1.12
2019-01-09T07:43:05.149Z,1.12
2019-01-09T07:44:05.245Z,1.19
2019-01-09T07:45:05.328Z,1.12
2019-01-09T07:46:05.485Z,1.19
2019-01-09T07:47:05.545Z,1.19
2019-01-09T07:48:06.030Z,1.12
2019-01-09T07:49:05.257Z,1.12
2019-01-09T07:50:05.149Z,1.12
2019-01-09T07:51:05.544Z,1.19
2019-01-09T07:52:05.413Z,1.19
2019-01-09T07:53:05.394Z,1.19
2019-01-09T07:54:05.633Z,1.19
2019-01-09T07:55:05.888Z,1.19
2019-01-09T07:56:05.882Z,1.12
2019-01-09T07:57:05.964Z,1.12
2019-01-09T07:58:05.786Z,1.12
2019-01-09T07:59:05.233Z,1.12
2019-01-09T08:00:05.546Z,1.12
2019-01-09T08:01:05.716Z,1.12
2019-01-09T08:02:05.791Z,1.12
2019-01-09T08:03:05.954Z,1.12
2019-01-09T08:04:05.073Z,1.12
2019-01-09T08:05:05.315Z,1.12
2019-01-09T08:06:05.801Z,1.12
2019-01-09T08:07:05.953Z,1.12
2019-01-09T08:08:05.308Z,1.12
2019-01-09T08:09:05.469Z,1.19
2019-01-09T08:10:05.149Z,1.19
2019-01-09T08:11:05.390Z,1.19
2019-01-09T08:12:05.864Z,1.19
2019-01-09T08:13:05.481Z,1.19
2019-01-09T08:14:06.043Z,1.19
2019-01-09T08:15:05.394Z,1.19
2019-01-09T08:16:06.023Z,1.19
2019-01-09T08:17:05.722Z,1.19
2019-01-09T08:18:05.989Z,1.19
2019-01-09T08:19:05.143Z,1.19
2019-01-09T08:20:05.383Z,1.19
2019-01-09T08:21:05.856Z,1.19
2019-01-09T08:22:05.483Z,1.19
2019-01-09T08:23:05.864Z,1.19
2019-01-09T08:24:06.056Z,1.19
2019-01-09T08:25:05.066Z,1.19
2019-01-09T08:26:05.298Z,1.19
2019-01-09T08:27:06.119Z,1.19
2019-01-09T08:28:04.982Z,1.19
2019-01-09T08:29:06.027Z,1.19
2019-01-09T08:30:05.492Z,1.19
2019-01-09T08:31:05.635Z,1.19
2019-01-09T08:32:05.872Z,1.19
2019-01-09T08:33:05.162Z,1.19
2019-01-09T08:34:05.240Z,1.19
2019-01-09T08:35:05.236Z,1.19
2019-01-09T08:36:05.316Z,1.19
2019-01-09T08:37:05.383Z,1.19
2019-01-09T08:38:05.548Z,1.19
2019-01-09T08:39:05.226Z,1.19
2019-01-09T08:40:05.888Z,1.19
2019-01-09T08:41:05.867Z,1.19
2019-01-09T08:42:05.955Z,1.19
2019-01-09T08:43:05.166Z,1.19
2019-01-09T08:44:05.481Z,1.19
2019-01-09T08:45:05.239Z,1.19
2019-01-09T08:46:05.151Z,1.25
2019-01-09T08:47:05.550Z,1.25
2019-01-09T08:48:06.681Z,1.25
2019-01-09T08:49:05.715Z,1.25
2019-01-09T08:50:05.791Z,1.25
2019-01-09T08:51:05.798Z,1.25
2019-01-09T08:52:05.245Z,1.31
2019-01-09T08:53:05.255Z,1.31
2019-01-09T08:54:05.574Z,1.31
2019-01-09T08:55:06.196Z,1.31
2019-01-09T08:56:05.563Z,1.31
2019-01-09T08:57:05.663Z,1.31
2019-01-09T08:58:05.798Z,1.31
2019-01-09T08:59:05.228Z,1.31
2019-01-09T09:00:05.793Z,1.38
2019-01-09T09:01:05.351Z,1.38
2019-01-09T09:02:05.311Z,1.38
2019-01-09T09:03:05.882Z,1.38
2019-01-09T09:04:05.310Z,1.38
2019-01-09T09:05:05.872Z,1.38
2019-01-09T09:06:05.953Z,1.38
2019-01-09T09:07:06.036Z,1.38
2019-01-09T09:08:11.710Z,1.38
2019-01-09T09:09:05.704Z,1.38
2019-01-09T09:10:05.290Z,1.44
2019-01-09T09:11:05.387Z,1.44
2019-01-09T09:12:05.969Z,1.38
2019-01-09T09:13:06.048Z,1.44
2019-01-09T09:14:05.389Z,1.44
2019-01-09T09:15:05.723Z,1.44
2019-01-09T09:16:05.721Z,1.44
2019-01-09T09:17:05.969Z,1.44
2019-01-09T09:18:05.801Z,1.44
2019-01-09T09:19:05.233Z,1.44
2019-01-09T09:20:05.311Z,1.50
2019-01-09T09:21:05.392Z,1.50
2019-01-09T09:22:05.530Z,1.50
2019-01-09T09:23:05.468Z,1.50
2019-01-09T09:24:05.969Z,1.50
2019-01-09T09:25:05.876Z,1.50
2019-01-09T09:26:05.319Z,1.50
2019-01-09T09:27:05.164Z,1.50
2019-01-09T09:28:05.644Z,1.50
2019-01-09T09:29:05.639Z,1.50
2019-01-09T09:30:05.329Z,1.50
2019-01-09T09:31:05.239Z,1.50
2019-01-09T09:32:05.488Z,1.50
2019-01-09T09:33:05.558Z,1.56
2019-01-09T09:34:05.892Z,1.56
2019-01-09T09:35:05.959Z,1.56
2019-01-09T09:36:05.951Z,1.56
2019-01-09T09:37:05.555Z,1.56
2019-01-09T09:38:05.724Z,1.56
2019-01-09T09:39:05.718Z,1.56
2019-01-09T09:40:05.875Z,1.62
2019-01-09T09:41:05.147Z,1.62
2019-01-09T09:42:05.470Z,1.62
2019-01-09T09:43:05.572Z,1.62
2019-01-09T09:44:06.026Z,1.69
2019-01-09T09:45:05.386Z,1.69
2019-01-09T09:46:05.790Z,1.69
2019-01-09T09:47:05.390Z,1.69
2019-01-09T09:48:05.798Z,1.69
2019-01-09T09:49:05.964Z,1.69
2019-01-09T09:50:05.559Z,1.75
2019-01-09T09:51:05.550Z,1.75
2019-01-09T09:52:05.550Z,1.75
2019-01-09T09:53:05.795Z,1.75
2019-01-09T09:54:05.957Z,1.75
2019-01-09T09:55:12.760Z,1.75
2019-01-09T09:56:05.546Z,1.81
2019-01-09T09:57:05.814Z,1.81
2019-01-09T09:58:06.130Z,1.81
2019-01-09T09:59:05.466Z,1.81
2019-01-09T10:00:05.249Z,1.81
2019-01-09T10:01:05.385Z,1.81
2019-01-09T10:02:06.059Z,1.88
2019-01-09T10:03:06.012Z,1.88
2019-01-09T10:04:05.639Z,1.88
2019-01-09T10:05:05.631Z,1.88
2019-01-09T10:06:05.235Z,1.88
2019-01-09T10:07:05.810Z,1.94
2019-01-09T10:08:05.803Z,1.94
2019-01-09T10:09:05.881Z,1.94
2019-01-09T10:10:05.940Z,1.94
2019-01-09T10:11:05.401Z,1.94
2019-01-09T10:12:05.467Z,1.94
2019-01-09T10:13:05.641Z,1.94
2019-01-09T10:14:05.721Z,1.94
2019-01-09T10:15:05.156Z,2.00
2019-01-09T10:16:05.894Z,2.00
2019-01-09T10:17:05.976Z,2.00
2019-01-09T10:18:06.036Z,2.00
2019-01-09T10:19:05.246Z,2.00
2019-01-09T10:20:05.145Z,2.06
2019-01-09T10:21:05.319Z,2.06
2019-01-09T10:22:05.401Z,2.06
2019-01-09T10:23:05.475Z,2.06
2019-01-09T10:24:05.884Z,2.06
2019-01-09T10:25:05.802Z,2.06
2019-01-09T10:26:05.882Z,2.12
2019-01-09T10:27:05.954Z,2.12
2019-01-09T10:28:05.783Z,2.12
2019-01-09T10:29:05.886Z,2.12
2019-01-09T10:30:05.311Z,2.12
2019-01-09T10:31:05.880Z,2.12
2019-01-09T10:32:05.394Z,2.12
2019-01-09T10:33:06.033Z,2.12
2019-01-09T10:34:05.081Z,2.19
2019-01-09T10:35:05.799Z,2.19
2019-01-09T10:36:05.466Z,2.19
2019-01-09T10:37:05.636Z,2.19
2019-01-09T10:38:05.326Z,2.19
2019-01-09T10:39:05.387Z,2.19
2019-01-09T10:40:05.395Z,2.19
2019-01-09T10:41:05.467Z,2.19
2019-01-09T10:42:05.951Z,2.19
2019-01-09T10:43:05.238Z,2.25
2019-01-09T10:44:05.226Z,2.19
2019-01-09T10:45:05.401Z,2.19
2019-01-09T10:46:05.472Z,2.25
2019-01-09T10:47:05.574Z,2.19
2019-01-09T10:48:05.384Z,2.25
2019-01-09T10:49:06.044Z,2.25
2019-01-09T10:50:06.054Z,2.25
2019-01-09T10:51:05.067Z,2.25
2019-01-09T10:52:05.071Z,2.25
2019-01-09T10:53:05.153Z,2.31
2019-01-09T10:54:05.386Z,2.31
2019-01-09T10:55:05.789Z,2.31
2019-01-09T10:56:05.073Z,2.31
2019-01-09T10:57:05.247Z,2.31
2019-01-09T10:58:05.260Z,2.31
2019-01-09T10:59:05.241Z,2.31
2019-01-09T11:00:05.479Z,2.38
2019-01-09T11:01:05.658Z,2.38
2019-01-09T11:02:05.785Z,2.38
2019-01-09T11:03:05.066Z,2.38
2019-01-09T11:04:05.315Z,2.38
2019-01-09T11:05:05.324Z,2.44
2019-01-09T11:06:05.561Z,2.44
2019-01-09T11:07:05.759Z,2.44
2019-01-09T11:08:05.782Z,2.44
2019-01-09T11:09:06.051Z,2.44
2019-01-09T11:10:05.069Z,2.44
2019-01-09T11:11:05.306Z,2.44
2019-01-09T11:12:05.469Z,2.50
2019-01-09T11:13:05.717Z,2.50
2019-01-09T11:14:05.709Z,2.50
2019-01-09T11:15:05.882Z,2.50
2019-01-09T11:16:05.987Z,2.50
2019-01-09T11:17:06.099Z,2.50
2019-01-09T11:18:05.712Z,2.50
2019-01-09T11:19:05.329Z,2.56
2019-01-09T11:20:05.395Z,2.50
2019-01-09T11:21:05.879Z,2.56
2019-01-09T11:22:05.960Z,2.56
2019-01-09T11:23:05.981Z,2.56
2019-01-09T11:24:05.547Z,2.50
2019-01-09T11:25:05.635Z,2.56
2019-01-09T11:26:05.719Z,2.56
2019-01-09T11:27:05.732Z,2.56
2019-01-09T11:28:05.874Z,2.56
2019-01-09T11:29:05.865Z,2.56
2019-01-09T11:30:05.466Z,2.56
2019-01-09T11:31:05.064Z,2.56
2019-01-09T11:32:05.545Z,2.56
2019-01-09T11:33:05.942Z,2.56
2019-01-09T11:34:05.540Z,2.56
2019-01-09T11:35:06.039Z,2.56
2019-01-09T11:36:05.885Z,2.56
2019-01-09T11:37:05.960Z,2.56
2019-01-09T11:38:05.229Z,2.50
2019-01-09T11:39:05.638Z,2.50
2019-01-09T11:40:05.156Z,2.50
2019-01-09T11:41:05.313Z,2.50
2019-01-09T11:42:05.725Z,2.50
2019-01-09T11:43:05.957Z,2.50
2019-01-09T11:44:06.034Z,2.50
2019-01-09T11:45:05.067Z,2.50
2019-01-09T11:46:05.229Z,2.50
2019-01-09T11:47:05.677Z,2.50
2019-01-09T11:48:06.035Z,2.50
2019-01-09T11:49:05.634Z,2.50
2019-01-09T11:50:06.116Z,2.50
2019-01-09T11:51:05.564Z,2.50
2019-01-09T11:52:05.893Z,2.50
2019-01-09T11:53:05.941Z,2.50
2019-01-09T11:54:05.638Z,2.50
2019-01-09T11:55:05.727Z,2.44
2019-01-09T11:56:05.714Z,2.44
2019-01-09T11:57:05.786Z,2.44
2019-01-09T11:58:05.947Z,2.44
2019-01-09T11:59:06.035Z,2.44
2019-01-09T12:00:05.237Z,2.44
2019-01-09T12:01:05.628Z,2.44
2019-01-09T12:02:05.624Z,2.44
2019-01-09T12:03:06.050Z,2.44
2019-01-09T12:04:06.040Z,2.44
2019-01-09T12:05:05.950Z,2.44
2019-01-09T12:06:06.041Z,2.44
2019-01-09T12:07:06.029Z,2.44
2019-01-09T12:08:05.478Z,2.44
2019-01-09T12:09:05.565Z,2.44
2019-01-09T12:10:05.162Z,2.44
2019-01-09T12:11:05.156Z,2.38
2019-01-09T12:12:05.545Z,2.44
2019-01-09T12:13:05.639Z,2.44
2019-01-09T12:14:05.896Z,2.44
2019-01-09T12:15:05.951Z,2.44
2019-01-09T12:16:08.071Z,2.44
2019-01-09T12:17:05.799Z,2.44
2019-01-09T12:18:06.764Z,2.38
2019-01-09T12:19:05.325Z,2.38
2019-01-09T12:20:05.315Z,2.38
2019-01-09T12:21:15.056Z,2.38
2019-01-09T12:22:05.786Z,2.44
2019-01-09T12:23:05.956Z,2.38
2019-01-09T12:24:06.026Z,2.44
2019-01-09T12:25:05.475Z,2.44
2019-01-09T12:26:05.965Z,2.44
2019-01-09T12:27:05.215Z,2.44
2019-01-09T12:28:05.545Z,2.44
2019-01-09T12:29:05.955Z,2.44
2019-01-09T12:30:05.465Z,2.44
2019-01-09T12:31:05.658Z,2.44
2019-01-09T12:32:05.648Z,2.44
2019-01-09T12:33:05.704Z,2.44
2019-01-09T12:34:05.225Z,2.44
2019-01-09T12:35:05.890Z,2.44
2019-01-09T12:36:05.871Z,2.44
2019-01-09T12:37:05.863Z,2.44
2019-01-09T12:38:05.472Z,2.44
2019-01-09T12:39:12.987Z,2.44
2019-01-09T12:40:05.795Z,2.38
2019-01-09T12:41:05.159Z,2.38
2019-01-09T12:42:05.225Z,2.38
2019-01-09T12:43:05.315Z,2.38
2019-01-09T12:44:05.962Z,2.38
2019-01-09T12:45:05.234Z,2.31
2019-01-09T12:46:05.496Z,2.31
2019-01-09T12:47:05.504Z,2.31
2019-01-09T12:48:05.782Z,2.31
2019-01-09T12:49:05.949Z,2.31
2019-01-09T12:50:05.483Z,2.31
2019-01-09T12:51:06.155Z,2.31
2019-01-09T12:52:05.709Z,2.31
2019-01-09T12:53:05.061Z,2.38
2019-01-09T12:54:05.144Z,2.31
2019-01-09T12:55:05.549Z,2.31
2019-01-09T12:56:06.034Z,2.38
2019-01-09T12:57:05.225Z,2.31
2019-01-09T12:58:05.621Z,2.31
2019-01-09T12:59:05.104Z,2.31
2019-01-09T13:00:05.074Z,2.31
2019-01-09T13:01:05.726Z,2.31
2019-01-09T13:02:05.823Z,2.31
2019-01-09T13:03:05.871Z,2.31
2019-01-09T13:04:07.486Z,2.31
2019-01-09T13:05:05.718Z,2.31
2019-01-09T13:06:05.388Z,2.31
2019-01-09T13:07:05.474Z,2.25
2019-01-09T13:08:05.704Z,2.25
2019-01-09T13:09:05.799Z,2.25
2019-01-09T13:10:05.791Z,2.25
2019-01-09T13:11:06.045Z,2.25
2019-01-09T13:12:05.957Z,2.25
2019-01-09T13:13:06.112Z,2.25
2019-01-09T13:14:05.069Z,2.19
2019-01-09T13:15:05.559Z,2.19
2019-01-09T13:16:05.715Z,2.19
2019-01-09T13:17:11.762Z,2.19
2019-01-09T13:18:05.499Z,2.19